createdAt,value
2018-07-24T00:01:29.126Z,69.74
2018-07-24T00:03:57.416Z,70.42
2018-07-24T00:06:25.865Z,69.92
2018-07-24T00:08:54.082Z,69.98
2018-07-24T00:11:22.331Z,70.59
2018-07-24T00:13:50.528Z,70.08
2018-07-24T00:16:19.149Z,70.80
2018-07-24T00:18:47.542Z,70.31
2018-07-24T00:21:15.826Z,70.38
2018-07-24T00:23:44.068Z,70.46
2018-07-24T00:26:12.425Z,70.34
2018-07-24T00:28:40.604Z,70.74
2018-07-24T00:31:08.945Z,70.27
2018-07-24T00:33:37.154Z,70.50
2018-07-24T00:36:05.337Z,70.24
2018-07-24T00:38:33.598Z,70.59
2018-07-24T00:41:01.863Z,70.00
2018-07-24T00:43:30.083Z,70.83
2018-07-24T00:45:58.510Z,70.98
2018-07-24T00:48:26.759Z,70.95
2018-07-24T00:50:54.933Z,70.58
2018-07-24T00:53:23.142Z,70.55
2018-07-24T00:55:51.384Z,70.08
2018-07-24T00:58:19.644Z,70.56
2018-07-24T01:00:47.940Z,70.95
2018-07-24T01:03:16.143Z,70.50
2018-07-24T01:05:44.369Z,69.56
2018-07-24T01:08:12.576Z,69.64
2018-07-24T01:10:40.802Z,70.14
2018-07-24T01:13:09.059Z,70.55
2018-07-24T01:15:37.311Z,71.39
2018-07-24T01:18:05.605Z,71.86
2018-07-24T01:20:33.819Z,71.55
2018-07-24T01:23:02.131Z,70.90
2018-07-24T01:25:30.706Z,72.10
2018-07-24T01:27:59.070Z,72.19
2018-07-24T01:30:27.286Z,72.32
2018-07-24T01:32:55.568Z,72.24
2018-07-24T01:35:23.995Z,72.44
2018-07-24T01:37:52.223Z,72.32
2018-07-24T01:40:20.621Z,71.99
2018-07-24T01:42:48.792Z,72.39
2018-07-24T01:45:17.026Z,72.40
2018-07-24T01:47:45.311Z,72.30
2018-07-24T01:50:13.524Z,72.91
2018-07-24T01:52:41.823Z,73.67
2018-07-24T01:55:10.242Z,73.75
2018-07-24T01:57:38.482Z,73.08
2018-07-24T02:00:07.301Z,73.85
2018-07-24T02:02:35.569Z,74.16
2018-07-24T02:05:03.885Z,74.09
2018-07-24T02:07:32.168Z,73.46
2018-07-24T02:10:00.462Z,73.62
2018-07-24T02:12:28.764Z,74.24
2018-07-24T02:14:56.995Z,73.72
2018-07-24T02:17:25.249Z,74.56
2018-07-24T02:19:53.546Z,73.62
2018-07-24T02:22:21.855Z,73.27
2018-07-24T02:24:50.120Z,73.54
2018-07-24T02:27:18.354Z,73.19
2018-07-24T02:29:47.383Z,74.24
2018-07-24T02:32:15.684Z,74.06
2018-07-24T02:34:43.885Z,73.62
2018-07-24T02:37:12.128Z,74.46
2018-07-24T02:39:40.440Z,74.08
2018-07-24T02:42:08.656Z,74.28
2018-07-24T02:44:36.848Z,74.41
2018-07-24T02:47:05.174Z,75.06
2018-07-24T02:49:33.504Z,74.98
2018-07-24T02:52:01.752Z,74.73
2018-07-24T02:54:29.969Z,75.33
2018-07-24T02:56:58.191Z,74.78
2018-07-24T02:59:26.384Z,74.59
2018-07-24T03:01:54.661Z,74.98
2018-07-24T03:04:23.008Z,74.77
2018-07-24T03:06:51.309Z,74.74
2018-07-24T03:09:19.574Z,75.12
2018-07-24T03:11:47.739Z,74.66
2018-07-24T03:14:16.010Z,74.65
2018-07-24T03:16:44.232Z,75.15
2018-07-24T03:19:12.437Z,75.43
2018-07-24T03:21:40.653Z,75.08
2018-07-24T03:24:08.891Z,75.24
2018-07-24T03:26:37.269Z,75.06
2018-07-24T03:29:05.674Z,76.12
2018-07-24T03:31:33.933Z,75.92
2018-07-24T03:34:02.095Z,75.19
2018-07-24T03:36:30.290Z,75.81
2018-07-24T03:38:58.743Z,75.88
2018-07-24T03:41:27.140Z,75.32
2018-07-24T03:43:55.434Z,75.50
2018-07-24T03:46:23.655Z,75.32
2018-07-24T03:48:51.846Z,74.86
2018-07-24T03:51:20.081Z,76.44
2018-07-24T03:53:48.343Z,76.21
2018-07-24T03:56:16.571Z,75.29
2018-07-24T03:58:45.483Z,75.75
2018-07-24T04:01:13.752Z,76.10
2018-07-24T04:03:41.951Z,75.47
2018-07-24T04:06:10.201Z,75.56
2018-07-24T04:08:38.414Z,75.40
2018-07-24T04:11:06.584Z,76.24
2018-07-24T04:13:34.805Z,75.69
2018-07-24T04:16:03.144Z,75.78
2018-07-24T04:18:36.433Z,76.07
2018-07-24T04:21:04.696Z,76.13
2018-07-24T04:23:32.952Z,75.04
2018-07-24T04:26:01.218Z,76.24
2018-07-24T04:28:29.427Z,75.33
2018-07-24T04:30:57.700Z,75.61
2018-07-24T04:33:25.951Z,76.11
2018-07-24T04:35:54.153Z,76.67
2018-07-24T04:38:22.379Z,75.67
2018-07-24T04:40:50.584Z,76.07
2018-07-24T04:43:18.819Z,75.60
2018-07-24T04:45:47.030Z,75.10
2018-07-24T04:48:15.262Z,75.06
2018-07-24T04:50:43.562Z,76.22
2018-07-24T04:53:11.763Z,76.32
2018-07-24T04:55:39.977Z,75.53
2018-07-24T04:58:08.695Z,76.50
2018-07-24T05:00:36.921Z,75.85
2018-07-24T05:03:05.883Z,75.24
2018-07-24T05:05:34.457Z,75.85
2018-07-24T05:08:02.654Z,75.84
2018-07-24T05:10:31.535Z,75.76
2018-07-24T05:12:59.728Z,76.08
2018-07-24T05:15:27.997Z,76.01
2018-07-24T05:17:56.848Z,76.73
2018-07-24T05:20:25.231Z,76.33
2018-07-24T05:22:54.362Z,75.63
2018-07-24T05:25:22.629Z,75.53
2018-07-24T05:27:50.909Z,76.44
2018-07-24T05:30:19.569Z,76.47
2018-07-24T05:32:47.809Z,76.75
2018-07-24T05:35:16.490Z,76.20
2018-07-24T05:37:44.772Z,76.08
2018-07-24T05:40:13.056Z,76.63
2018-07-24T05:42:41.397Z,77.06
2018-07-24T05:45:09.738Z,76.29
2018-07-24T05:47:37.981Z,76.83
2018-07-24T05:50:06.205Z,76.02
2018-07-24T05:52:34.440Z,76.92
2018-07-24T05:55:02.695Z,76.33
2018-07-24T05:57:30.896Z,76.49
2018-07-24T05:59:59.373Z,76.65
2018-07-24T06:02:27.629Z,76.69
2018-07-24T06:04:55.841Z,75.98
2018-07-24T06:07:24.162Z,76.12
2018-07-24T06:09:52.318Z,75.40
2018-07-24T06:12:20.551Z,75.72
2018-07-24T06:14:48.790Z,76.33
2018-07-24T06:17:17.025Z,75.61
2018-07-24T06:19:45.338Z,75.23
2018-07-24T06:22:14.300Z,74.17
2018-07-24T06:24:42.592Z,74.95
2018-07-24T06:27:10.878Z,75.12
2018-07-24T06:29:39.132Z,74.96
2018-07-24T06:32:07.533Z,75.81
2018-07-24T06:34:35.789Z,76.37
2018-07-24T06:37:03.989Z,74.85
2018-07-24T06:39:32.215Z,74.99
2018-07-24T06:42:00.424Z,74.80
2018-07-24T06:44:28.688Z,75.39
2018-07-24T06:46:56.941Z,74.80
2018-07-24T06:49:25.144Z,74.11
2018-07-24T06:51:53.431Z,72.36
2018-07-24T06:54:21.628Z,72.45
2018-07-24T06:56:49.985Z,73.59
2018-07-24T06:59:18.182Z,73.37
2018-07-24T07:01:46.435Z,73.07
2018-07-24T07:04:14.701Z,71.81
2018-07-24T07:06:42.938Z,73.07
2018-07-24T07:09:11.182Z,72.21
2018-07-24T07:11:39.407Z,72.85
2018-07-24T07:14:07.706Z,72.29
2018-07-24T07:16:36.037Z,71.17
2018-07-24T07:19:04.254Z,70.91
2018-07-24T07:21:32.471Z,70.55
2018-07-24T07:24:00.742Z,68.32
2018-07-24T07:26:28.962Z,67.02
2018-07-24T07:28:57.199Z,69.00
2018-07-24T07:31:25.424Z,70.37
2018-07-24T07:33:53.652Z,69.55
2018-07-24T07:36:21.957Z,67.66
2018-07-24T07:38:50.182Z,68.00
2018-07-24T07:41:18.401Z,66.68
2018-07-24T07:43:46.643Z,68.19
2018-07-24T07:46:14.908Z,68.18
2018-07-24T07:48:43.148Z,67.98
2018-07-24T07:51:11.425Z,69.61
2018-07-24T07:53:39.652Z,67.21
2018-07-24T07:56:07.862Z,68.13
2018-07-24T07:58:36.066Z,66.39
2018-07-24T08:01:04.293Z,65.67
2018-07-24T08:03:32.464Z,64.94
2018-07-24T08:06:00.681Z,64.85
2018-07-24T08:08:29.036Z,64.98
2018-07-24T08:10:57.349Z,64.55
2018-07-24T08:13:25.669Z,63.11
2018-07-24T08:15:53.911Z,63.34
2018-07-24T08:18:22.137Z,64.05
2018-07-24T08:20:50.336Z,64.58
2018-07-24T08:23:18.600Z,64.26
2018-07-24T08:25:46.809Z,64.10
2018-07-24T08:28:15.229Z,62.51
2018-07-24T08:30:43.427Z,61.89
2018-07-24T08:33:11.599Z,63.07
2018-07-24T08:35:39.801Z,62.85
2018-07-24T08:38:08.045Z,62.28
2018-07-24T08:40:36.313Z,61.82
2018-07-24T08:43:04.562Z,60.01
2018-07-24T08:45:32.806Z,61.51
2018-07-24T08:48:01.053Z,61.53
2018-07-24T08:50:29.257Z,61.11
2018-07-24T08:52:57.566Z,60.77
2018-07-24T08:55:26.025Z,60.43
2018-07-24T08:57:54.288Z,58.79
2018-07-24T09:00:22.507Z,60.69
2018-07-24T09:02:50.788Z,59.51
2018-07-24T09:05:19.069Z,59.29
2018-07-24T09:07:47.362Z,61.00
2018-07-24T09:10:15.675Z,60.05
2018-07-24T09:12:43.779Z,60.09
2018-07-24T09:15:12.023Z,59.61
2018-07-24T09:17:40.200Z,59.85
2018-07-24T09:20:08.460Z,61.18
2018-07-24T09:22:36.933Z,60.21
2018-07-24T09:25:05.220Z,58.97
2018-07-24T09:27:33.426Z,58.34
2018-07-24T09:30:01.619Z,58.80
2018-07-24T09:32:29.867Z,58.94
2018-07-24T09:34:58.095Z,59.25
2018-07-24T09:37:26.452Z,58.41
2018-07-24T09:39:54.711Z,57.47
2018-07-24T09:42:22.962Z,57.01
2018-07-24T09:44:51.205Z,57.64
2018-07-24T09:47:19.485Z,58.21
2018-07-24T09:49:47.702Z,54.39
2018-07-24T09:52:15.927Z,57.46
2018-07-24T09:54:44.156Z,56.82
2018-07-24T09:57:12.337Z,56.66
2018-07-24T09:59:40.660Z,56.40
2018-07-24T10:02:09.579Z,54.80
2018-07-24T10:04:37.816Z,56.98
2018-07-24T10:07:06.015Z,57.05
2018-07-24T10:09:34.302Z,56.23
2018-07-24T10:12:02.590Z,56.32
2018-07-24T10:14:30.810Z,56.45
2018-07-24T10:16:59.144Z,57.70
2018-07-24T10:19:27.283Z,56.07
2018-07-24T10:21:55.494Z,56.13
2018-07-24T10:24:23.762Z,55.38
2018-07-24T10:26:51.953Z,55.54
2018-07-24T10:29:20.192Z,54.84
2018-07-24T10:31:48.420Z,55.28
2018-07-24T10:34:16.608Z,54.58
2018-07-24T10:36:44.785Z,52.96
2018-07-24T10:39:13.277Z,53.70
2018-07-24T10:41:41.778Z,52.10
2018-07-24T10:44:10.163Z,55.12
2018-07-24T10:46:38.883Z,52.61
2018-07-24T10:49:07.291Z,54.15
2018-07-24T10:51:35.492Z,52.82
2018-07-24T10:54:03.758Z,52.70
2018-07-24T10:56:32.470Z,51.66
2018-07-24T10:59:00.773Z,52.15
2018-07-24T11:01:29.060Z,52.46
2018-07-24T11:03:57.719Z,52.59
2018-07-24T11:06:26.178Z,50.00
2018-07-24T11:08:54.707Z,51.85
2018-07-24T11:11:22.919Z,50.39
2018-07-24T11:13:51.440Z,51.53
2018-07-24T11:16:19.792Z,50.52
2018-07-24T11:18:48.141Z,50.42
2018-07-24T11:21:16.336Z,50.87
2018-07-24T11:23:44.575Z,48.97
2018-07-24T11:26:12.782Z,49.54
2018-07-24T11:28:40.964Z,50.22
2018-07-24T11:31:09.315Z,49.28
2018-07-24T11:33:37.536Z,49.45
2018-07-24T11:36:05.917Z,48.10
2018-07-24T11:38:34.082Z,49.27
2018-07-24T11:41:02.345Z,48.62
2018-07-24T11:43:30.495Z,49.07
2018-07-24T11:45:58.707Z,49.56
2018-07-24T11:48:26.981Z,47.19
2018-07-24T11:50:55.202Z,48.10
2018-07-24T11:53:23.527Z,48.65
2018-07-24T11:55:51.754Z,46.47
2018-07-24T11:58:19.983Z,47.92
2018-07-24T12:00:48.226Z,48.31
2018-07-24T12:03:16.464Z,48.64
2018-07-24T12:05:44.720Z,46.98
2018-07-24T12:08:12.953Z,47.09
2018-07-24T12:10:41.192Z,47.52
2018-07-24T12:13:09.469Z,47.52
2018-07-24T12:15:37.748Z,47.16
2018-07-24T12:18:05.974Z,45.74
2018-07-24T12:20:34.177Z,46.44
2018-07-24T12:23:02.444Z,47.07
2018-07-24T12:25:31.241Z,46.61
2018-07-24T12:27:59.443Z,46.42
2018-07-24T12:30:27.717Z,46.82
2018-07-24T12:32:55.943Z,46.65
2018-07-24T12:35:24.169Z,47.23
2018-07-24T12:37:52.399Z,46.36
2018-07-24T12:40:20.609Z,46.14
2018-07-24T12:42:48.906Z,46.57
2018-07-24T12:45:17.151Z,45.86
2018-07-24T12:47:45.361Z,46.08
2018-07-24T12:50:13.560Z,48.44
2018-07-24T12:52:42.422Z,46.95
2018-07-24T12:55:10.644Z,46.20
2018-07-24T12:57:38.818Z,45.90
2018-07-24T13:00:07.053Z,45.68
2018-07-24T13:02:35.348Z,45.42
2018-07-24T13:05:03.702Z,46.10
2018-07-24T13:07:31.939Z,46.58
2018-07-24T13:10:00.156Z,46.74
2018-07-24T13:12:28.449Z,47.70
2018-07-24T13:14:56.653Z,46.38
2018-07-24T13:17:24.845Z,46.16
2018-07-24T13:19:53.094Z,47.14
2018-07-24T13:22:21.320Z,46.43
2018-07-24T13:24:49.588Z,46.16
2018-07-24T13:27:18.072Z,45.42
2018-07-24T13:29:46.259Z,45.84
2018-07-24T13:32:14.461Z,46.23
2018-07-24T13:34:42.699Z,46.61
2018-07-24T13:37:11.004Z,44.10
2018-07-24T13:39:39.171Z,45.26
2018-07-24T13:42:07.398Z,44.64
2018-07-24T13:44:35.626Z,44.52
2018-07-24T13:47:03.865Z,44.11
2018-07-24T13:49:32.093Z,45.31
2018-07-24T13:52:00.382Z,45.97
2018-07-24T13:54:28.577Z,45.56
2018-07-24T13:56:56.776Z,43.15
2018-07-24T13:59:25.053Z,45.39
2018-07-24T14:01:53.311Z,45.35
2018-07-24T14:04:21.536Z,44.87
2018-07-24T14:06:49.800Z,44.33
2018-07-24T14:09:18.043Z,44.51
2018-07-24T14:11:46.218Z,44.06
2018-07-24T14:14:14.557Z,43.69
2018-07-24T14:16:42.729Z,44.28
2018-07-24T14:19:10.937Z,43.96
2018-07-24T14:21:39.212Z,43.96
2018-07-24T14:24:07.724Z,43.67
2018-07-24T14:26:35.911Z,43.63
2018-07-24T14:29:04.136Z,43.69
2018-07-24T14:31:32.354Z,43.84
2018-07-24T14:34:00.572Z,42.85
2018-07-24T14:36:28.890Z,42.65
2018-07-24T14:38:57.097Z,41.82
2018-07-24T14:41:25.321Z,41.72
2018-07-24T14:43:53.560Z,42.54
2018-07-24T14:46:21.845Z,41.07
2018-07-24T14:48:50.049Z,42.09
2018-07-24T14:51:18.285Z,41.75
2018-07-24T14:53:46.511Z,40.98
2018-07-24T14:56:14.692Z,41.80
2018-07-24T14:58:43.475Z,41.55
2018-07-24T15:01:11.651Z,41.82
2018-07-24T15:03:39.908Z,40.73
2018-07-24T15:06:08.172Z,41.98
2018-07-24T15:11:27.671Z,41.45
2018-07-24T15:14:01.446Z,40.04
2018-07-24T15:16:29.896Z,39.58
2018-07-24T15:18:59.321Z,40.85
2018-07-24T15:21:27.561Z,40.54
2018-07-24T15:23:55.764Z,41.66
2018-07-24T15:26:23.996Z,41.92
2018-07-24T15:28:52.262Z,40.59
2018-07-24T15:31:29.632Z,41.33
2018-07-24T15:33:57.832Z,40.17
2018-07-24T15:36:49.287Z,40.12
2018-07-24T15:39:17.789Z,40.42
2018-07-24T15:42:04.700Z,41.12
2018-07-24T15:44:32.976Z,39.99
2018-07-24T15:47:01.239Z,39.95
2018-07-24T15:49:29.596Z,40.20
2018-07-24T15:51:57.916Z,40.10
2018-07-24T15:54:26.202Z,39.83
2018-07-24T15:56:54.448Z,39.82
2018-07-24T15:59:22.691Z,39.17
2018-07-24T16:01:50.872Z,39.69
2018-07-24T16:04:19.394Z,40.54
2018-07-24T16:06:47.576Z,38.26
2018-07-24T16:09:15.777Z,39.32
2018-07-24T16:12:22.624Z,39.67
2018-07-24T16:14:50.840Z,38.31
2018-07-24T16:17:19.171Z,39.20
2018-07-24T16:19:47.447Z,39.01
2018-07-24T16:22:15.861Z,38.58
2018-07-24T16:24:44.112Z,38.40
2018-07-24T16:27:12.300Z,38.30
2018-07-24T16:29:40.618Z,37.28
2018-07-24T16:32:09.007Z,37.70
2018-07-24T16:34:37.262Z,38.34
2018-07-24T16:37:05.635Z,38.21
2018-07-24T16:39:33.810Z,38.67
2018-07-24T16:42:04.123Z,37.87
2018-07-24T16:44:32.359Z,37.24
2018-07-24T16:47:00.619Z,37.93
2018-07-24T16:49:28.928Z,37.51
2018-07-24T16:51:57.272Z,37.28
2018-07-24T16:54:30.235Z,36.80
2018-07-24T16:56:58.560Z,37.28
2018-07-24T16:59:26.923Z,36.71
2018-07-24T17:01:55.427Z,36.78
2018-07-24T17:04:48.900Z,36.33
2018-07-24T17:07:17.180Z,36.29
2018-07-24T17:09:45.399Z,36.93
2018-07-24T17:12:13.688Z,36.16
2018-07-24T17:14:41.979Z,35.83
2018-07-24T17:17:10.480Z,37.23
2018-07-24T17:19:39.001Z,36.84
2018-07-24T17:22:07.270Z,38.32
2018-07-24T17:24:35.513Z,37.38
2018-07-24T17:27:03.771Z,37.98
2018-07-24T17:29:32.003Z,37.20
2018-07-24T17:32:00.271Z,37.18
2018-07-24T17:34:28.491Z,37.42
2018-07-24T17:36:58.746Z,38.44
2018-07-24T17:39:27.059Z,37.36
2018-07-24T17:41:57.763Z,36.63
2018-07-24T17:44:28.596Z,36.55
2018-07-24T17:46:56.922Z,37.97
2018-07-24T17:49:25.174Z,38.26
2018-07-24T17:51:53.478Z,39.37
2018-07-24T17:54:21.754Z,38.63
2018-07-24T17:56:50.018Z,39.53
2018-07-24T17:59:18.296Z,39.56
2018-07-24T18:01:46.592Z,39.58
2018-07-24T18:04:14.831Z,39.60
2018-07-24T18:06:43.415Z,40.02
2018-07-24T18:09:13.043Z,40.45
2018-07-24T18:11:41.388Z,40.51
2018-07-24T18:14:10.253Z,40.59
2018-07-24T18:16:39.053Z,41.30
2018-07-24T18:19:07.404Z,42.29
2018-07-24T18:21:35.768Z,41.59
2018-07-24T18:24:04.234Z,42.07
2018-07-24T18:26:32.639Z,42.55
2018-07-24T18:29:00.916Z,41.56
2018-07-24T18:31:29.305Z,42.33
2018-07-24T18:33:57.552Z,42.46
2018-07-24T18:36:25.812Z,42.68
2018-07-24T18:38:54.169Z,41.53
2018-07-24T18:41:22.494Z,42.63
2018-07-24T18:43:51.111Z,43.04
2018-07-24T18:46:19.472Z,43.57
2018-07-24T18:48:47.770Z,42.74
2018-07-24T18:51:16.029Z,43.99
2018-07-24T18:53:44.351Z,43.25
2018-07-24T18:56:12.692Z,43.75
2018-07-24T18:58:40.927Z,43.06
2018-07-24T19:01:09.221Z,43.02
2018-07-24T19:03:37.477Z,43.23
2018-07-24T19:06:05.752Z,43.97
2018-07-24T19:08:34.160Z,44.59
2018-07-24T19:11:02.656Z,45.79
2018-07-24T19:13:30.950Z,45.48
2018-07-24T19:15:59.301Z,46.12
2018-07-24T19:18:28.204Z,47.66
2018-07-24T19:20:56.636Z,49.35
2018-07-24T19:23:24.944Z,48.25
2018-07-24T19:25:53.283Z,48.51
2018-07-24T19:28:21.669Z,49.68
2018-07-24T19:30:50.207Z,48.32
2018-07-24T19:33:18.645Z,48.00
2018-07-24T19:35:47.034Z,48.66
2018-07-24T19:38:15.567Z,48.49
2018-07-24T19:40:43.966Z,49.33
2018-07-24T19:43:13.750Z,48.58
2018-07-24T19:45:43.393Z,49.27
2018-07-24T19:48:12.055Z,48.93
2018-07-24T19:50:41.475Z,47.79
2018-07-24T19:53:11.024Z,48.05
2018-07-24T19:55:39.435Z,47.92
2018-07-24T19:58:08.755Z,47.87
2018-07-24T20:00:37.247Z,47.28
2018-07-24T20:03:05.602Z,48.00
2018-07-24T20:05:34.918Z,48.67
2018-07-24T20:08:04.275Z,48.03
2018-07-24T20:10:32.718Z,48.94
2018-07-24T20:13:01.093Z,48.64
2018-07-24T20:15:30.090Z,49.67
2018-07-24T20:17:58.379Z,49.42
2018-07-24T20:20:26.861Z,49.18
2018-07-24T20:22:55.592Z,49.02
2018-07-24T20:25:23.928Z,49.12
2018-07-24T20:27:52.302Z,49.56
2018-07-24T20:30:20.633Z,49.51
2018-07-24T20:32:48.970Z,49.75
2018-07-24T20:35:17.280Z,49.59
2018-07-24T20:37:46.184Z,49.88
2018-07-24T20:40:14.418Z,49.99
2018-07-24T20:42:43.163Z,50.19
2018-07-24T20:45:11.938Z,51.01
2018-07-24T20:47:40.388Z,50.72
2018-07-24T20:50:08.640Z,50.84
2018-07-24T20:52:36.892Z,50.76
2018-07-24T20:55:05.396Z,51.10
2018-07-24T20:57:33.713Z,51.87
2018-07-24T21:00:02.132Z,52.22
2018-07-24T21:02:30.363Z,52.88
2018-07-24T21:04:58.641Z,52.36
2018-07-24T21:07:26.945Z,52.74
2018-07-24T21:09:55.170Z,52.26
2018-07-24T21:12:23.412Z,53.02
2018-07-24T21:14:51.790Z,53.22
2018-07-24T21:17:20.025Z,52.32
2018-07-24T21:19:48.217Z,51.90
2018-07-24T21:22:16.516Z,52.45
2018-07-24T21:24:44.767Z,53.07
2018-07-24T21:27:12.976Z,52.30
2018-07-24T21:29:41.288Z,53.05
2018-07-24T21:32:09.564Z,53.40
2018-07-24T21:34:37.827Z,52.99
2018-07-24T21:37:06.100Z,53.16
2018-07-24T21:39:34.380Z,53.99
2018-07-24T21:42:02.659Z,53.61
2018-07-24T21:44:31.027Z,53.94
2018-07-24T21:46:59.255Z,53.79
2018-07-24T21:49:27.510Z,54.46
2018-07-24T21:51:55.752Z,54.38
2018-07-24T21:54:23.999Z,54.64
2018-07-24T21:56:52.305Z,55.63
2018-07-24T21:59:20.861Z,55.00
2018-07-24T22:01:49.185Z,55.36
2018-07-24T22:04:17.405Z,54.95
2018-07-24T22:06:45.667Z,55.53
2018-07-24T22:09:14.005Z,56.16
2018-07-24T22:11:42.186Z,56.04
2018-07-24T22:14:10.463Z,56.31
2018-07-24T22:16:38.690Z,56.21
2018-07-24T22:19:06.907Z,56.33
2018-07-24T22:21:35.146Z,55.60
2018-07-24T22:24:03.498Z,56.30
2018-07-24T22:26:31.738Z,56.52
2018-07-24T22:28:59.967Z,57.04
2018-07-24T22:31:28.331Z,56.75
2018-07-24T22:33:56.580Z,56.13
2018-07-24T22:36:24.786Z,56.76
2018-07-24T22:38:53.055Z,56.76
2018-07-24T22:41:21.274Z,57.23
2018-07-24T22:43:49.474Z,56.78
2018-07-24T22:46:17.687Z,57.26
2018-07-24T22:48:45.983Z,56.81
2018-07-24T22:51:14.167Z,57.76
2018-07-24T22:53:42.696Z,57.35
2018-07-24T22:56:11.438Z,57.12
2018-07-24T22:58:40.028Z,57.72
2018-07-24T23:01:08.243Z,57.95
2018-07-24T23:03:37.207Z,58.23
2018-07-24T23:06:05.530Z,57.76
2018-07-24T23:08:33.864Z,56.90
2018-07-24T23:11:02.137Z,57.47
2018-07-24T23:13:30.373Z,58.63
2018-07-24T23:15:58.638Z,57.99
2018-07-24T23:18:26.875Z,58.63
2018-07-24T23:20:55.082Z,58.62
2018-07-24T23:23:23.271Z,59.12
2018-07-24T23:25:51.571Z,58.76
2018-07-24T23:28:19.806Z,58.42
2018-07-24T23:30:47.998Z,58.57
2018-07-24T23:33:16.228Z,58.90
2018-07-24T23:35:44.423Z,58.42
2018-07-24T23:38:12.620Z,57.93
2018-07-24T23:40:40.867Z,57.39
2018-07-24T23:43:10.062Z,57.61
2018-07-24T23:45:38.297Z,57.97
2018-07-24T23:48:06.584Z,58.06
2018-07-24T23:50:34.937Z,57.59
2018-07-24T23:53:03.175Z,58.60
2018-07-24T23:55:34.400Z,58.21
2018-07-24T23:58:03.489Z,58.03
